sensor_id;sensor_type;location;lat;lon;timestamp;P1;durP1;ratioP1;P2;durP2;ratioP2
77136;SDS011;66102;48.542;-2.970;2023-03-01T00:00:40;21.88;;;12.40;;
77136;SDS011;66102;48.542;-2.970;2023-03-01T00:03:06;17.40;;;12.15;;
77136;SDS011;66102;48.542;-2.970;2023-03-01T00:05:32;21.65;;;12.95;;
77136;SDS011;66102;48.542;-2.970;2023-03-01T00:07:58;23.85;;;12.13;;
77136;SDS011;66102;48.542;-2.970;2023-03-01T00:10:24;21.25;;;12.02;;
77136;SDS011;66102;48.542;-2.970;2023-03-01T00:12:51;22.10;;;12.13;;
77136;SDS011;66102;48.542;-2.970;2023-03-01T00:15:17;24.95;;;12.73;;
77136;SDS011;66102;48.542;-2.970;2023-03-01T00:17:43;27.00;;;14.05;;
77136;SDS011;66102;48.542;-2.970;2023-03-01T00:22:36;19.73;;;11.55;;
77136;SDS011;66102;48.542;-2.970;2023-03-01T00:25:02;21.88;;;12.82;;
77136;SDS011;66102;48.542;-2.970;2023-03-01T00:27:28;19.60;;;11.02;;
77136;SDS011;66102;48.542;-2.970;2023-03-01T00:32:20;24.55;;;14.13;;
77136;SDS011;66102;48.542;-2.970;2023-03-01T00:34:47;21.45;;;12.52;;
77136;SDS011;66102;48.542;-2.970;2023-03-01T00:37:20;25.55;;;14.20;;
77136;SDS011;66102;48.542;-2.970;2023-03-01T00:39:46;24.73;;;14.05;;
77136;SDS011;66102;48.542;-2.970;2023-03-01T00:42:12;23.88;;;14.32;;
77136;SDS011;66102;48.542;-2.970;2023-03-01T00:44:38;25.02;;;13.98;;
77136;SDS011;66102;48.542;-2.970;2023-03-01T00:47:04;20.90;;;12.15;;
77136;SDS011;66102;48.542;-2.970;2023-03-01T00:49:30;24.73;;;14.32;;
77136;SDS011;66102;48.542;-2.970;2023-03-01T00:51:56;25.83;;;13.95;;
77136;SDS011;66102;48.542;-2.970;2023-03-01T00:54:22;20.40;;;12.80;;
77136;SDS011;66102;48.542;-2.970;2023-03-01T00:56:48;22.63;;;13.15;;
77136;SDS011;66102;48.542;-2.970;2023-03-01T00:59:14;23.55;;;12.13;;
77136;SDS011;66102;48.542;-2.970;2023-03-01T01:01:40;21.50;;;12.32;;
77136;SDS011;66102;48.542;-2.970;2023-03-01T01:04:07;21.73;;;12.77;;
77136;SDS011;66102;48.542;-2.970;2023-03-01T01:06:35;23.92;;;13.60;;
77136;SDS011;66102;48.542;-2.970;2023-03-01T01:09:02;20.13;;;12.32;;
77136;SDS011;66102;48.542;-2.970;2023-03-01T01:11:29;19.67;;;11.20;;
77136;SDS011;66102;48.542;-2.970;2023-03-01T01:13:55;21.90;;;12.95;;
77136;SDS011;66102;48.542;-2.970;2023-03-01T01:16:22;23.15;;;12.30;;
77136;SDS011;66102;48.542;-2.970;2023-03-01T01:18:49;21.27;;;12.82;;
77136;SDS011;66102;48.542;-2.970;2023-03-01T01:21:17;20.42;;;11.68;;
77136;SDS011;66102;48.542;-2.970;2023-03-01T01:23:44;19.73;;;11.18;;
77136;SDS011;66102;48.542;-2.970;2023-03-01T01:26:12;21.90;;;11.60;;
77136;SDS011;66102;48.542;-2.970;2023-03-01T01:28:39;22.90;;;13.80;;
77136;SDS011;66102;48.542;-2.970;2023-03-01T01:31:05;24.10;;;14.30;;
77136;SDS011;66102;48.542;-2.970;2023-03-01T01:33:32;22.60;;;13.20;;
77136;SDS011;66102;48.542;-2.970;2023-03-01T01:35:58;24.95;;;14.38;;
77136;SDS011;66102;48.542;-2.970;2023-03-01T01:38:24;22.23;;;14.32;;
77136;SDS011;66102;48.542;-2.970;2023-03-01T01:40:50;23.05;;;13.73;;
77136;SDS011;66102;48.542;-2.970;2023-03-01T01:45:49;18.85;;;11.20;;
77136;SDS011;66102;48.542;-2.970;2023-03-01T01:48:22;19.25;;;11.60;;
77136;SDS011;66102;48.542;-2.970;2023-03-01T01:50:51;18.17;;;11.35;;
77136;SDS011;66102;48.542;-2.970;2023-03-01T01:53:20;20.08;;;13.13;;
77136;SDS011;66102;48.542;-2.970;2023-03-01T01:55:47;19.63;;;10.57;;
77136;SDS011;66102;48.542;-2.970;2023-03-01T01:58:15;19.98;;;11.50;;
77136;SDS011;66102;48.542;-2.970;2023-03-01T02:00:43;19.17;;;10.70;;
77136;SDS011;66102;48.542;-2.970;2023-03-01T02:03:14;18.35;;;11.38;;
77136;SDS011;66102;48.542;-2.970;2023-03-01T02:08:28;15.45;;;9.98;;
77136;SDS011;66102;48.542;-2.970;2023-03-01T02:10:58;14.32;;;8.95;;
77136;SDS011;66102;48.542;-2.970;2023-03-01T02:13:25;13.98;;;9.30;;
77136;SDS011;66102;48.542;-2.970;2023-03-01T02:15:51;15.40;;;9.65;;
77136;SDS011;66102;48.542;-2.970;2023-03-01T02:18:18;14.57;;;9.40;;
77136;SDS011;66102;48.542;-2.970;2023-03-01T02:20:54;15.63;;;9.93;;
77136;SDS011;66102;48.542;-2.970;2023-03-01T02:23:22;15.90;;;9.90;;
77136;SDS011;66102;48.542;-2.970;2023-03-01T02:26:00;18.55;;;9.45;;
77136;SDS011;66102;48.542;-2.970;2023-03-01T02:28:38;18.77;;;10.48;;
77136;SDS011;66102;48.542;-2.970;2023-03-01T02:31:05;16.58;;;10.00;;
77136;SDS011;66102;48.542;-2.970;2023-03-01T02:33:50;15.00;;;10.18;;
77136;SDS011;66102;48.542;-2.970;2023-03-01T02:36:18;16.10;;;9.15;;
77136;SDS011;66102;48.542;-2.970;2023-03-01T02:38:44;14.50;;;9.48;;
77136;SDS011;66102;48.542;-2.970;2023-03-01T02:41:11;15.18;;;10.05;;
77136;SDS011;66102;48.542;-2.970;2023-03-01T02:43:39;17.13;;;9.82;;
77136;SDS011;66102;48.542;-2.970;2023-03-01T02:46:06;15.85;;;9.38;;
77136;SDS011;66102;48.542;-2.970;2023-03-01T02:48:39;16.63;;;10.52;;
77136;SDS011;66102;48.542;-2.970;2023-03-01T02:58:30;16.55;;;10.38;;
77136;SDS011;66102;48.542;-2.970;2023-03-01T03:00:56;18.52;;;9.50;;
77136;SDS011;66102;48.542;-2.970;2023-03-01T03:03:22;19.08;;;10.85;;
77136;SDS011;66102;48.542;-2.970;2023-03-01T03:05:48;18.00;;;9.50;;
77136;SDS011;66102;48.542;-2.970;2023-03-01T03:10:48;16.27;;;10.20;;
77136;SDS011;66102;48.542;-2.970;2023-03-01T03:13:14;17.85;;;11.05;;
77136;SDS011;66102;48.542;-2.970;2023-03-01T03:15:41;16.75;;;9.65;;
77136;SDS011;66102;48.542;-2.970;2023-03-01T03:18:09;15.77;;;9.02;;
77136;SDS011;66102;48.542;-2.970;2023-03-01T03:20:35;19.98;;;11.05;;
77136;SDS011;66102;48.542;-2.970;2023-03-01T03:23:02;15.63;;;9.73;;
77136;SDS011;66102;48.542;-2.970;2023-03-01T03:25:28;16.40;;;9.95;;
77136;SDS011;66102;48.542;-2.970;2023-03-01T03:27:55;17.65;;;10.68;;
77136;SDS011;66102;48.542;-2.970;2023-03-01T03:30:22;17.00;;;10.35;;
77136;SDS011;66102;48.542;-2.970;2023-03-01T03:32:49;15.65;;;9.43;;
77136;SDS011;66102;48.542;-2.970;2023-03-01T03:35:40;15.50;;;10.18;;
77136;SDS011;66102;48.542;-2.970;2023-03-01T03:38:07;17.65;;;10.35;;
77136;SDS011;66102;48.542;-2.970;2023-03-01T03:40:40;16.05;;;9.38;;
77136;SDS011;66102;48.542;-2.970;2023-03-01T03:43:08;18.00;;;9.43;;
77136;SDS011;66102;48.542;-2.970;2023-03-01T03:45:34;20.27;;;10.70;;
77136;SDS011;66102;48.542;-2.970;2023-03-01T03:48:02;15.45;;;9.00;;
77136;SDS011;66102;48.542;-2.970;2023-03-01T03:50:28;17.23;;;10.63;;
77136;SDS011;66102;48.542;-2.970;2023-03-01T03:52:54;19.85;;;10.18;;
77136;SDS011;66102;48.542;-2.970;2023-03-01T03:55:20;17.38;;;10.45;;
77136;SDS011;66102;48.542;-2.970;2023-03-01T03:57:47;15.90;;;10.48;;
77136;SDS011;66102;48.542;-2.970;2023-03-01T04:00:20;14.68;;;9.13;;
77136;SDS011;66102;48.542;-2.970;2023-03-01T04:02:47;16.90;;;10.65;;
77136;SDS011;66102;48.542;-2.970;2023-03-01T04:05:14;18.92;;;10.55;;
77136;SDS011;66102;48.542;-2.970;2023-03-01T04:07:40;17.27;;;9.73;;
77136;SDS011;66102;48.542;-2.970;2023-03-01T04:10:08;17.50;;;11.25;;
77136;SDS011;66102;48.542;-2.970;2023-03-01T04:12:34;15.30;;;10.10;;
77136;SDS011;66102;48.542;-2.970;2023-03-01T04:15:02;15.05;;;8.52;;
77136;SDS011;66102;48.542;-2.970;2023-03-01T04:17:37;14.85;;;9.25;;
77136;SDS011;66102;48.542;-2.970;2023-03-01T04:20:04;14.40;;;9.18;;
77136;SDS011;66102;48.542;-2.970;2023-03-01T04:22:31;17.42;;;9.65;;
77136;SDS011;66102;48.542;-2.970;2023-03-01T04:24:58;17.35;;;9.77;;
77136;SDS011;66102;48.542;-2.970;2023-03-01T04:27:32;16.60;;;9.00;;
77136;SDS011;66102;48.542;-2.970;2023-03-01T04:29:58;15.50;;;8.98;;
77136;SDS011;66102;48.542;-2.970;2023-03-01T04:34:50;20.88;;;9.30;;
77136;SDS011;66102;48.542;-2.970;2023-03-01T04:39:42;14.93;;;9.38;;
77136;SDS011;66102;48.542;-2.970;2023-03-01T04:42:12;14.80;;;8.70;;
77136;SDS011;66102;48.542;-2.970;2023-03-01T04:44:39;14.43;;;8.70;;
77136;SDS011;66102;48.542;-2.970;2023-03-01T04:47:05;15.20;;;7.88;;
77136;SDS011;66102;48.542;-2.970;2023-03-01T04:49:31;13.43;;;8.65;;
77136;SDS011;66102;48.542;-2.970;2023-03-01T04:54:26;14.02;;;8.40;;
77136;SDS011;66102;48.542;-2.970;2023-03-01T04:56:53;12.55;;;7.47;;
77136;SDS011;66102;48.542;-2.970;2023-03-01T04:59:19;15.00;;;9.02;;
77136;SDS011;66102;48.542;-2.970;2023-03-01T05:01:47;12.25;;;8.48;;
77136;SDS011;66102;48.542;-2.970;2023-03-01T05:04:13;15.73;;;8.00;;
77136;SDS011;66102;48.542;-2.970;2023-03-01T05:06:40;13.68;;;7.95;;
77136;SDS011;66102;48.542;-2.970;2023-03-01T05:09:06;12.30;;;7.80;;
77136;SDS011;66102;48.542;-2.970;2023-03-01T05:11:32;13.63;;;7.88;;
77136;SDS011;66102;48.542;-2.970;2023-03-01T05:14:04;12.68;;;7.75;;
77136;SDS011;66102;48.542;-2.970;2023-03-01T05:16:30;13.18;;;7.70;;
77136;SDS011;66102;48.542;-2.970;2023-03-01T05:18:57;12.25;;;7.40;;
77136;SDS011;66102;48.542;-2.970;2023-03-01T05:21:23;13.88;;;8.02;;
77136;SDS011;66102;48.542;-2.970;2023-03-01T05:23:49;13.50;;;7.03;;
77136;SDS011;66102;48.542;-2.970;2023-03-01T05:26:16;17.77;;;7.47;;
77136;SDS011;66102;48.542;-2.970;2023-03-01T05:28:43;13.57;;;7.25;;
77136;SDS011;66102;48.542;-2.970;2023-03-01T05:31:09;12.30;;;6.95;;
77136;SDS011;66102;48.542;-2.970;2023-03-01T05:33:36;10.48;;;6.50;;
77136;SDS011;66102;48.542;-2.970;2023-03-01T05:36:03;11.13;;;6.97;;
77136;SDS011;66102;48.542;-2.970;2023-03-01T05:38:29;11.25;;;6.65;;
77136;SDS011;66102;48.542;-2.970;2023-03-01T05:40:56;9.73;;;6.03;;
77136;SDS011;66102;48.542;-2.970;2023-03-01T05:45:47;9.98;;;4.97;;
77136;SDS011;66102;48.542;-2.970;2023-03-01T05:50:41;7.82;;;4.38;;
77136;SDS011;66102;48.542;-2.970;2023-03-01T05:53:15;9.73;;;4.90;;
77136;SDS011;66102;48.542;-2.970;2023-03-01T05:55:41;8.27;;;4.82;;
77136;SDS011;66102;48.542;-2.970;2023-03-01T05:58:09;9.68;;;5.13;;
77136;SDS011;66102;48.542;-2.970;2023-03-01T06:00:35;8.02;;;4.18;;
77136;SDS011;66102;48.542;-2.970;2023-03-01T06:03:02;10.40;;;4.95;;
77136;SDS011;66102;48.542;-2.970;2023-03-01T06:05:28;9.30;;;4.93;;
77136;SDS011;66102;48.542;-2.970;2023-03-01T06:07:54;8.65;;;4.95;;
77136;SDS011;66102;48.542;-2.970;2023-03-01T06:10:21;9.50;;;5.28;;
77136;SDS011;66102;48.542;-2.970;2023-03-01T06:12:47;8.38;;;4.38;;
77136;SDS011;66102;48.542;-2.970;2023-03-01T06:15:14;10.70;;;5.50;;
77136;SDS011;66102;48.542;-2.970;2023-03-01T06:17:41;9.65;;;5.35;;
77136;SDS011;66102;48.542;-2.970;2023-03-01T06:20:18;12.65;;;5.80;;
77136;SDS011;66102;48.542;-2.970;2023-03-01T06:22:44;9.07;;;5.30;;
77136;SDS011;66102;48.542;-2.970;2023-03-01T06:25:12;10.00;;;5.50;;
77136;SDS011;66102;48.542;-2.970;2023-03-01T06:27:38;9.10;;;5.10;;
77136;SDS011;66102;48.542;-2.970;2023-03-01T06:30:05;9.60;;;5.95;;
77136;SDS011;66102;48.542;-2.970;2023-03-01T06:32:32;11.18;;;5.93;;
77136;SDS011;66102;48.542;-2.970;2023-03-01T06:34:58;9.93;;;5.53;;
77136;SDS011;66102;48.542;-2.970;2023-03-01T06:37:25;11.18;;;5.63;;
77136;SDS011;66102;48.542;-2.970;2023-03-01T06:39:51;11.10;;;5.68;;
77136;SDS011;66102;48.542;-2.970;2023-03-01T06:42:17;10.90;;;5.35;;
77136;SDS011;66102;48.542;-2.970;2023-03-01T06:44:44;10.40;;;5.75;;
77136;SDS011;66102;48.542;-2.970;2023-03-01T06:47:10;9.23;;;5.68;;
77136;SDS011;66102;48.542;-2.970;2023-03-01T06:49:37;12.43;;;6.18;;
77136;SDS011;66102;48.542;-2.970;2023-03-01T06:52:03;11.32;;;6.30;;
77136;SDS011;66102;48.542;-2.970;2023-03-01T06:54:29;13.90;;;7.05;;
77136;SDS011;66102;48.542;-2.970;2023-03-01T06:59:21;11.02;;;6.85;;
77136;SDS011;66102;48.542;-2.970;2023-03-01T07:01:47;14.80;;;7.53;;
77136;SDS011;66102;48.542;-2.970;2023-03-01T07:04:13;11.48;;;7.07;;
77136;SDS011;66102;48.542;-2.970;2023-03-01T07:06:39;11.13;;;5.88;;
77136;SDS011;66102;48.542;-2.970;2023-03-01T07:09:05;12.82;;;7.03;;
77136;SDS011;66102;48.542;-2.970;2023-03-01T07:11:32;11.20;;;6.15;;
77136;SDS011;66102;48.542;-2.970;2023-03-01T07:13:58;12.45;;;7.45;;
77136;SDS011;66102;48.542;-2.970;2023-03-01T07:16:25;14.40;;;7.68;;
77136;SDS011;66102;48.542;-2.970;2023-03-01T07:18:51;12.07;;;6.93;;
77136;SDS011;66102;48.542;-2.970;2023-03-01T07:21:17;13.35;;;7.03;;
77136;SDS011;66102;48.542;-2.970;2023-03-01T07:23:43;12.70;;;7.50;;
77136;SDS011;66102;48.542;-2.970;2023-03-01T07:26:10;13.07;;;7.22;;
77136;SDS011;66102;48.542;-2.970;2023-03-01T07:28:36;13.65;;;6.43;;
77136;SDS011;66102;48.542;-2.970;2023-03-01T07:31:04;12.43;;;6.95;;
77136;SDS011;66102;48.542;-2.970;2023-03-01T07:33:30;20.40;;;8.85;;
77136;SDS011;66102;48.542;-2.970;2023-03-01T07:36:00;14.10;;;8.23;;
77136;SDS011;66102;48.542;-2.970;2023-03-01T07:38:26;16.83;;;8.93;;
77136;SDS011;66102;48.542;-2.970;2023-03-01T07:40:53;13.90;;;7.20;;
77136;SDS011;66102;48.542;-2.970;2023-03-01T07:43:19;15.10;;;9.18;;
77136;SDS011;66102;48.542;-2.970;2023-03-01T07:45:45;16.35;;;8.27;;
77136;SDS011;66102;48.542;-2.970;2023-03-01T07:48:11;14.43;;;7.90;;
77136;SDS011;66102;48.542;-2.970;2023-03-01T07:50:37;17.08;;;8.68;;
77136;SDS011;66102;48.542;-2.970;2023-03-01T07:53:03;14.48;;;8.60;;
77136;SDS011;66102;48.542;-2.970;2023-03-01T07:55:30;16.42;;;9.93;;
77136;SDS011;66102;48.542;-2.970;2023-03-01T07:57:56;16.33;;;8.00;;
77136;SDS011;66102;48.542;-2.970;2023-03-01T08:00:22;16.50;;;9.30;;
77136;SDS011;66102;48.542;-2.970;2023-03-01T08:02:48;18.30;;;9.82;;
77136;SDS011;66102;48.542;-2.970;2023-03-01T08:05:14;15.43;;;8.88;;
77136;SDS011;66102;48.542;-2.970;2023-03-01T08:07:40;19.65;;;9.23;;
77136;SDS011;66102;48.542;-2.970;2023-03-01T08:10:06;17.75;;;9.00;;
77136;SDS011;66102;48.542;-2.970;2023-03-01T08:12:32;19.98;;;8.98;;
77136;SDS011;66102;48.542;-2.970;2023-03-01T08:14:58;15.68;;;9.18;;
77136;SDS011;66102;48.542;-2.970;2023-03-01T08:17:24;15.57;;;9.02;;
77136;SDS011;66102;48.542;-2.970;2023-03-01T08:19:51;18.23;;;9.07;;
77136;SDS011;66102;48.542;-2.970;2023-03-01T08:22:17;15.93;;;9.15;;
77136;SDS011;66102;48.542;-2.970;2023-03-01T08:24:43;17.35;;;8.45;;
77136;SDS011;66102;48.542;-2.970;2023-03-01T08:27:09;15.90;;;9.52;;
77136;SDS011;66102;48.542;-2.970;2023-03-01T08:29:37;15.07;;;8.80;;
77136;SDS011;66102;48.542;-2.970;2023-03-01T08:32:03;16.60;;;9.70;;
77136;SDS011;66102;48.542;-2.970;2023-03-01T08:34:29;16.77;;;9.30;;
77136;SDS011;66102;48.542;-2.970;2023-03-01T08:36:56;17.23;;;9.43;;
77136;SDS011;66102;48.542;-2.970;2023-03-01T08:39:23;19.38;;;9.48;;
77136;SDS011;66102;48.542;-2.970;2023-03-01T08:41:49;16.23;;;9.10;;
77136;SDS011;66102;48.542;-2.970;2023-03-01T08:44:15;18.65;;;9.32;;
77136;SDS011;66102;48.542;-2.970;2023-03-01T08:46:41;18.17;;;10.20;;
77136;SDS011;66102;48.542;-2.970;2023-03-01T08:49:12;17.92;;;9.25;;
77136;SDS011;66102;48.542;-2.970;2023-03-01T08:51:38;16.70;;;9.10;;
77136;SDS011;66102;48.542;-2.970;2023-03-01T08:54:09;16.42;;;8.98;;
77136;SDS011;66102;48.542;-2.970;2023-03-01T08:56:36;20.02;;;9.73;;
77136;SDS011;66102;48.542;-2.970;2023-03-01T08:59:02;20.13;;;10.18;;
77136;SDS011;66102;48.542;-2.970;2023-03-01T09:01:28;16.88;;;9.73;;
77136;SDS011;66102;48.542;-2.970;2023-03-01T09:03:54;15.80;;;8.98;;
77136;SDS011;66102;48.542;-2.970;2023-03-01T09:06:21;18.45;;;10.20;;
77136;SDS011;66102;48.542;-2.970;2023-03-01T09:08:48;16.45;;;10.20;;
77136;SDS011;66102;48.542;-2.970;2023-03-01T09:11:16;18.00;;;9.68;;
77136;SDS011;66102;48.542;-2.970;2023-03-01T09:13:43;17.70;;;9.90;;
77136;SDS011;66102;48.542;-2.970;2023-03-01T09:16:10;17.65;;;10.25;;
77136;SDS011;66102;48.542;-2.970;2023-03-01T09:18:36;17.88;;;10.20;;
77136;SDS011;66102;48.542;-2.970;2023-03-01T09:21:03;17.45;;;10.98;;
77136;SDS011;66102;48.542;-2.970;2023-03-01T09:23:32;20.63;;;11.77;;
77136;SDS011;66102;48.542;-2.970;2023-03-01T09:25:58;19.23;;;10.20;;
77136;SDS011;66102;48.542;-2.970;2023-03-01T09:28:24;19.13;;;10.75;;
77136;SDS011;66102;48.542;-2.970;2023-03-01T09:30:50;19.95;;;10.25;;
77136;SDS011;66102;48.542;-2.970;2023-03-01T09:33:16;20.58;;;11.23;;
77136;SDS011;66102;48.542;-2.970;2023-03-01T09:35:42;19.27;;;11.10;;
77136;SDS011;66102;48.542;-2.970;2023-03-01T09:38:12;20.92;;;11.55;;
77136;SDS011;66102;48.542;-2.970;2023-03-01T09:40:43;23.83;;;12.25;;
77136;SDS011;66102;48.542;-2.970;2023-03-01T09:45:40;19.67;;;11.52;;
77136;SDS011;66102;48.542;-2.970;2023-03-01T09:48:10;19.60;;;10.43;;
77136;SDS011;66102;48.542;-2.970;2023-03-01T09:50:39;25.13;;;11.57;;
77136;SDS011;66102;48.542;-2.970;2023-03-01T09:58:25;19.10;;;10.27;;
77136;SDS011;66102;48.542;-2.970;2023-03-01T10:00:53;19.65;;;11.18;;
77136;SDS011;66102;48.542;-2.970;2023-03-01T10:03:26;24.25;;;11.27;;
77136;SDS011;66102;48.542;-2.970;2023-03-01T10:10:49;19.38;;;10.90;;
77136;SDS011;66102;48.542;-2.970;2023-03-01T10:13:23;22.15;;;11.73;;
77136;SDS011;66102;48.542;-2.970;2023-03-01T10:16:00;21.30;;;12.10;;
77136;SDS011;66102;48.542;-2.970;2023-03-01T10:18:28;20.90;;;12.73;;
77136;SDS011;66102;48.542;-2.970;2023-03-01T10:21:00;21.52;;;13.20;;
77136;SDS011;66102;48.542;-2.970;2023-03-01T10:23:27;21.95;;;11.80;;
77136;SDS011;66102;48.542;-2.970;2023-03-01T10:31:12;26.10;;;12.88;;
77136;SDS011;66102;48.542;-2.970;2023-03-01T10:33:39;18.95;;;11.15;;
77136;SDS011;66102;48.542;-2.970;2023-03-01T10:36:07;21.80;;;12.15;;
77136;SDS011;66102;48.542;-2.970;2023-03-01T10:38:47;22.55;;;11.52;;
77136;SDS011;66102;48.542;-2.970;2023-03-01T10:41:13;24.05;;;12.55;;
77136;SDS011;66102;48.542;-2.970;2023-03-01T10:46:25;19.33;;;12.57;;
77136;SDS011;66102;48.542;-2.970;2023-03-01T10:51:36;22.45;;;13.57;;
77136;SDS011;66102;48.542;-2.970;2023-03-01T10:54:04;23.08;;;12.88;;
77136;SDS011;66102;48.542;-2.970;2023-03-01T10:56:30;26.33;;;12.98;;
77136;SDS011;66102;48.542;-2.970;2023-03-01T10:59:19;21.25;;;11.43;;
77136;SDS011;66102;48.542;-2.970;2023-03-01T11:01:46;24.58;;;12.95;;
77136;SDS011;66102;48.542;-2.970;2023-03-01T11:04:26;21.67;;;12.18;;
77136;SDS011;66102;48.542;-2.970;2023-03-01T11:06:57;18.85;;;10.98;;
77136;SDS011;66102;48.542;-2.970;2023-03-01T11:09:24;19.75;;;12.18;;
77136;SDS011;66102;48.542;-2.970;2023-03-01T11:11:59;21.73;;;11.48;;
77136;SDS011;66102;48.542;-2.970;2023-03-01T11:14:31;21.90;;;12.25;;
77136;SDS011;66102;48.542;-2.970;2023-03-01T11:16:59;20.70;;;13.00;;
77136;SDS011;66102;48.542;-2.970;2023-03-01T11:19:25;22.55;;;13.73;;
77136;SDS011;66102;48.542;-2.970;2023-03-01T11:22:07;20.15;;;11.20;;
77136;SDS011;66102;48.542;-2.970;2023-03-01T11:27:12;20.67;;;12.38;;
77136;SDS011;66102;48.542;-2.970;2023-03-01T11:29:45;20.30;;;12.32;;
77136;SDS011;66102;48.542;-2.970;2023-03-01T11:32:13;19.85;;;11.63;;
77136;SDS011;66102;48.542;-2.970;2023-03-01T11:34:45;24.13;;;12.55;;
77136;SDS011;66102;48.542;-2.970;2023-03-01T11:37:16;20.90;;;12.73;;
77136;SDS011;66102;48.542;-2.970;2023-03-01T11:39:50;20.67;;;12.77;;
77136;SDS011;66102;48.542;-2.970;2023-03-01T11:42:42;21.95;;;12.77;;
77136;SDS011;66102;48.542;-2.970;2023-03-01T11:45:10;23.95;;;11.63;;
77136;SDS011;66102;48.542;-2.970;2023-03-01T11:50:20;22.10;;;12.43;;
77136;SDS011;66102;48.542;-2.970;2023-03-01T11:52:54;19.17;;;10.85;;
77136;SDS011;66102;48.542;-2.970;2023-03-01T12:00:38;24.90;;;11.73;;
77136;SDS011;66102;48.542;-2.970;2023-03-01T12:08:09;21.10;;;12.25;;
77136;SDS011;66102;48.542;-2.970;2023-03-01T12:13:46;24.85;;;13.05;;
77136;SDS011;66102;48.542;-2.970;2023-03-01T12:18:41;21.10;;;12.02;;
77136;SDS011;66102;48.542;-2.970;2023-03-01T12:29:14;22.73;;;11.93;;
77136;SDS011;66102;48.542;-2.970;2023-03-01T12:31:48;22.63;;;13.20;;
77136;SDS011;66102;48.542;-2.970;2023-03-01T12:47:02;22.05;;;12.25;;
77136;SDS011;66102;48.542;-2.970;2023-03-01T12:50:15;19.58;;;12.23;;
77136;SDS011;66102;48.542;-2.970;2023-03-01T12:52:24;26.20;;;12.50;;
77136;SDS011;66102;48.542;-2.970;2023-03-01T12:54:54;23.08;;;12.32;;
77136;SDS011;66102;48.542;-2.970;2023-03-01T12:57:33;22.38;;;13.32;;
77136;SDS011;66102;48.542;-2.970;2023-03-01T13:02:35;22.95;;;12.65;;
77136;SDS011;66102;48.542;-2.970;2023-03-01T13:05:07;25.33;;;13.93;;
77136;SDS011;66102;48.542;-2.970;2023-03-01T13:07:50;24.38;;;13.55;;
77136;SDS011;66102;48.542;-2.970;2023-03-01T13:10:26;22.38;;;12.00;;
77136;SDS011;66102;48.542;-2.970;2023-03-01T13:17:48;24.50;;;12.45;;
77136;SDS011;66102;48.542;-2.970;2023-03-01T13:23:06;22.25;;;12.82;;
77136;SDS011;66102;48.542;-2.970;2023-03-01T13:25:32;24.25;;;13.60;;
77136;SDS011;66102;48.542;-2.970;2023-03-01T13:30:45;22.52;;;13.35;;
77136;SDS011;66102;48.542;-2.970;2023-03-01T13:35:44;27.23;;;14.27;;
77136;SDS011;66102;48.542;-2.970;2023-03-01T13:43:31;26.33;;;13.25;;
77136;SDS011;66102;48.542;-2.970;2023-03-01T13:45:58;25.67;;;14.40;;
77136;SDS011;66102;48.542;-2.970;2023-03-01T13:48:26;27.75;;;14.45;;
77136;SDS011;66102;48.542;-2.970;2023-03-01T13:50:54;28.33;;;14.45;;
77136;SDS011;66102;48.542;-2.970;2023-03-01T13:53:22;25.38;;;13.75;;
77136;SDS011;66102;48.542;-2.970;2023-03-01T13:56:06;27.65;;;14.18;;
77136;SDS011;66102;48.542;-2.970;2023-03-01T13:58:33;23.27;;;13.43;;
77136;SDS011;66102;48.542;-2.970;2023-03-01T14:04:18;27.38;;;13.20;;
77136;SDS011;66102;48.542;-2.970;2023-03-01T14:06:45;27.92;;;15.52;;
77136;SDS011;66102;48.542;-2.970;2023-03-01T14:14:25;27.90;;;15.10;;
77136;SDS011;66102;48.542;-2.970;2023-03-01T14:19:34;25.08;;;13.90;;
77136;SDS011;66102;48.542;-2.970;2023-03-01T14:22:14;24.60;;;13.20;;
77136;SDS011;66102;48.542;-2.970;2023-03-01T14:24:54;26.00;;;14.50;;
77136;SDS011;66102;48.542;-2.970;2023-03-01T14:27:20;27.98;;;14.85;;
77136;SDS011;66102;48.542;-2.970;2023-03-01T14:29:54;25.42;;;13.32;;
77136;SDS011;66102;48.542;-2.970;2023-03-01T14:32:23;23.60;;;13.82;;
77136;SDS011;66102;48.542;-2.970;2023-03-01T14:34:50;21.70;;;12.52;;
77136;SDS011;66102;48.542;-2.970;2023-03-01T14:39:42;24.17;;;14.32;;
77136;SDS011;66102;48.542;-2.970;2023-03-01T14:42:08;20.65;;;13.02;;
77136;SDS011;66102;48.542;-2.970;2023-03-01T14:44:35;25.98;;;13.82;;
77136;SDS011;66102;48.542;-2.970;2023-03-01T14:47:02;24.15;;;14.73;;
77136;SDS011;66102;48.542;-2.970;2023-03-01T14:49:30;26.52;;;15.05;;
77136;SDS011;66102;48.542;-2.970;2023-03-01T14:51:57;23.92;;;15.55;;
77136;SDS011;66102;48.542;-2.970;2023-03-01T14:54:27;26.25;;;14.60;;
77136;SDS011;66102;48.542;-2.970;2023-03-01T14:56:57;27.05;;;16.98;;
77136;SDS011;66102;48.542;-2.970;2023-03-01T14:59:24;27.98;;;17.80;;
77136;SDS011;66102;48.542;-2.970;2023-03-01T15:01:51;29.90;;;17.38;;
77136;SDS011;66102;48.542;-2.970;2023-03-01T15:04:17;26.75;;;16.17;;
77136;SDS011;66102;48.542;-2.970;2023-03-01T15:06:44;25.27;;;14.63;;
77136;SDS011;66102;48.542;-2.970;2023-03-01T15:09:12;27.77;;;14.68;;
77136;SDS011;66102;48.542;-2.970;2023-03-01T15:11:39;24.67;;;14.23;;
77136;SDS011;66102;48.542;-2.970;2023-03-01T15:16:53;26.05;;;14.40;;
77136;SDS011;66102;48.542;-2.970;2023-03-01T15:19:19;23.45;;;13.40;;
77136;SDS011;66102;48.542;-2.970;2023-03-01T15:21:46;24.15;;;14.38;;
77136;SDS011;66102;48.542;-2.970;2023-03-01T15:24:23;23.65;;;13.50;;
77136;SDS011;66102;48.542;-2.970;2023-03-01T15:26:54;25.77;;;12.70;;
77136;SDS011;66102;48.542;-2.970;2023-03-01T15:29:27;22.00;;;12.02;;
77136;SDS011;66102;48.542;-2.970;2023-03-01T15:31:58;21.58;;;11.00;;
77136;SDS011;66102;48.542;-2.970;2023-03-01T15:34:32;19.80;;;11.55;;
77136;SDS011;66102;48.542;-2.970;2023-03-01T15:36:59;20.45;;;13.05;;
77136;SDS011;66102;48.542;-2.970;2023-03-01T15:39:33;21.45;;;12.25;;
77136;SDS011;66102;48.542;-2.970;2023-03-01T15:42:04;18.63;;;10.90;;
77136;SDS011;66102;48.542;-2.970;2023-03-01T15:44:32;22.10;;;12.00;;
77136;SDS011;66102;48.542;-2.970;2023-03-01T15:46:58;21.50;;;12.40;;
77136;SDS011;66102;48.542;-2.970;2023-03-01T15:49:34;21.95;;;12.23;;
77136;SDS011;66102;48.542;-2.970;2023-03-01T15:52:01;19.83;;;11.35;;
77136;SDS011;66102;48.542;-2.970;2023-03-01T15:54:28;22.08;;;11.48;;
77136;SDS011;66102;48.542;-2.970;2023-03-01T15:56:54;21.92;;;12.70;;
77136;SDS011;66102;48.542;-2.970;2023-03-01T15:59:20;21.65;;;13.10;;
77136;SDS011;66102;48.542;-2.970;2023-03-01T16:01:47;25.75;;;12.18;;
77136;SDS011;66102;48.542;-2.970;2023-03-01T16:04:15;19.75;;;12.02;;
77136;SDS011;66102;48.542;-2.970;2023-03-01T16:06:49;20.92;;;12.27;;
77136;SDS011;66102;48.542;-2.970;2023-03-01T16:09:28;21.25;;;11.82;;
77136;SDS011;66102;48.542;-2.970;2023-03-01T16:11:54;22.35;;;12.50;;
77136;SDS011;66102;48.542;-2.970;2023-03-01T16:14:20;22.17;;;12.40;;
77136;SDS011;66102;48.542;-2.970;2023-03-01T16:16:47;19.40;;;11.32;;
77136;SDS011;66102;48.542;-2.970;2023-03-01T16:19:14;20.38;;;11.82;;
77136;SDS011;66102;48.542;-2.970;2023-03-01T16:21:40;18.63;;;12.10;;
77136;SDS011;66102;48.542;-2.970;2023-03-01T16:24:07;20.52;;;11.70;;
77136;SDS011;66102;48.542;-2.970;2023-03-01T16:26:33;17.83;;;11.20;;
77136;SDS011;66102;48.542;-2.970;2023-03-01T16:28:59;19.33;;;11.18;;
77136;SDS011;66102;48.542;-2.970;2023-03-01T16:31:26;20.98;;;12.50;;
77136;SDS011;66102;48.542;-2.970;2023-03-01T16:33:54;19.10;;;11.63;;
77136;SDS011;66102;48.542;-2.970;2023-03-01T16:36:20;20.77;;;10.48;;